createdAt,value
2018-09-24T00:00:39.364Z,10.67
2018-09-24T00:02:06.728Z,10.67
2018-09-24T00:03:32.988Z,10.68
2018-09-24T00:04:59.759Z,10.71
2018-09-24T00:06:28.165Z,10.74
2018-09-24T00:07:54.656Z,10.76
2018-09-24T00:09:22.307Z,10.74
2018-09-24T00:10:48.439Z,10.73
2018-09-24T00:12:16.596Z,10.71
2018-09-24T00:13:43.688Z,10.71
2018-09-24T00:15:10.856Z,10.71
2018-09-24T00:16:36.958Z,10.72
2018-09-24T00:18:07.259Z,10.74
2018-09-24T00:19:31.482Z,10.76
2018-09-24T00:20:59.957Z,10.78
2018-09-24T00:22:26.194Z,10.78
2018-09-24T00:23:54.158Z,10.78
2018-09-24T00:25:21.429Z,10.77
2018-09-24T00:26:47.626Z,10.77
2018-09-24T00:28:16.075Z,10.79
2018-09-24T00:29:41.852Z,10.79
2018-09-24T00:31:09.181Z,10.78
2018-09-24T00:32:35.972Z,10.78
2018-09-24T00:34:03.626Z,10.79
2018-09-24T00:35:29.989Z,10.80
2018-09-24T00:36:57.406Z,10.80
2018-09-24T00:38:24.561Z,10.75
2018-09-24T00:39:51.971Z,10.74
2018-09-24T00:41:20.110Z,10.75
2018-09-24T00:42:46.855Z,10.77
2018-09-24T00:44:14.067Z,10.77
2018-09-24T00:45:40.409Z,10.78
2018-09-24T00:47:08.506Z,10.78
2018-09-24T00:48:35.613Z,10.78
2018-09-24T00:50:01.948Z,10.79
2018-09-24T00:51:29.500Z,10.79
2018-09-24T00:52:55.992Z,10.79
2018-09-24T00:54:23.870Z,10.78
2018-09-24T00:55:50.165Z,10.80
2018-09-24T00:57:17.438Z,10.82
2018-09-24T00:58:45.755Z,10.85
2018-09-24T01:00:12.931Z,10.86
2018-09-24T01:01:39.738Z,10.87
2018-09-24T01:03:06.319Z,10.88
2018-09-24T01:04:32.620Z,10.91
2018-09-24T01:06:01.145Z,10.92
2018-09-24T01:07:27.409Z,10.92
2018-09-24T01:08:54.879Z,10.93
2018-09-24T01:10:21.531Z,10.95
2018-09-24T01:11:49.865Z,10.98
2018-09-24T01:13:17.113Z,10.98
2018-09-24T01:14:42.983Z,10.99
2018-09-24T01:16:11.403Z,11.00
2018-09-24T01:17:37.066Z,10.99
2018-09-24T01:19:04.674Z,11.01
2018-09-24T01:20:30.402Z,11.01
2018-09-24T01:21:58.335Z,10.99
2018-09-24T01:23:25.743Z,10.93
2018-09-24T01:24:52.866Z,10.87
2018-09-24T01:26:20.285Z,10.88
2018-09-24T01:27:47.572Z,10.85
2018-09-24T01:29:13.996Z,10.87
2018-09-24T01:30:42.215Z,10.90
2018-09-24T01:32:09.622Z,10.91
2018-09-24T01:33:36.224Z,10.93
2018-09-24T01:35:03.668Z,10.93
2018-09-24T01:36:29.848Z,10.90
2018-09-24T01:37:57.266Z,10.86
2018-09-24T01:39:27.598Z,10.82
2018-09-24T01:40:51.931Z,10.81
2018-09-24T01:42:20.389Z,10.83
2018-09-24T01:43:47.021Z,10.84
2018-09-24T01:45:14.167Z,10.79
2018-09-24T01:46:41.610Z,10.77
2018-09-24T01:48:08.376Z,10.78
2018-09-24T01:49:34.536Z,10.76
2018-09-24T01:51:01.867Z,10.72
2018-09-24T01:52:29.211Z,10.68
2018-09-24T01:53:57.576Z,10.67
2018-09-24T01:55:23.890Z,10.64
2018-09-24T01:56:52.254Z,10.66
2018-09-24T01:58:19.176Z,10.67
2018-09-24T01:59:45.422Z,10.70
2018-09-24T02:01:11.563Z,10.73
2018-09-24T02:02:39.990Z,10.74
2018-09-24T02:04:06.514Z,10.72
2018-09-24T02:05:33.254Z,10.73
2018-09-24T02:07:01.560Z,10.72
2018-09-24T02:08:28.766Z,10.70
2018-09-24T02:09:54.610Z,10.66
2018-09-24T02:11:23.084Z,10.66
2018-09-24T02:12:48.862Z,10.66
2018-09-24T02:14:17.000Z,10.65
2018-09-24T02:15:44.023Z,10.63
2018-09-24T02:17:10.825Z,10.62
2018-09-24T02:18:36.996Z,10.60
2018-09-24T02:20:05.461Z,10.58
2018-09-24T02:21:32.816Z,10.57
2018-09-24T02:22:59.199Z,10.57
2018-09-24T02:24:27.621Z,10.56
2018-09-24T02:25:54.888Z,10.53
2018-09-24T02:27:22.263Z,10.49
2018-09-24T02:28:48.936Z,10.46
2018-09-24T02:30:16.083Z,10.44
2018-09-24T02:31:43.517Z,10.42
2018-09-24T02:33:09.519Z,10.42
2018-09-24T02:34:36.687Z,10.41
2018-09-24T02:36:03.983Z,10.39
2018-09-24T02:37:31.253Z,10.42
2018-09-24T02:38:59.347Z,10.45
2018-09-24T02:40:26.644Z,10.44
2018-09-24T02:41:54.017Z,10.40
2018-09-24T02:43:20.679Z,10.35
2018-09-24T02:44:47.022Z,10.32
2018-09-24T02:46:14.324Z,10.26
2018-09-24T02:47:42.630Z,10.23
2018-09-24T02:49:08.357Z,10.24
2018-09-24T02:50:36.607Z,10.25
2018-09-24T02:52:03.963Z,10.20
2018-09-24T02:53:31.260Z,10.18
2018-09-24T02:54:57.416Z,10.19
2018-09-24T02:56:25.820Z,10.17
2018-09-24T02:57:53.116Z,10.19
2018-09-24T02:59:20.387Z,10.22
2018-09-24T03:00:46.451Z,10.20
2018-09-24T03:02:13.692Z,10.19
2018-09-24T03:03:41.065Z,10.20
2018-09-24T03:05:09.047Z,10.22
2018-09-24T03:06:36.265Z,10.19
2018-09-24T03:08:03.618Z,10.13
2018-09-24T03:09:30.874Z,10.05
2018-09-24T03:10:57.301Z,9.98
2018-09-24T03:12:24.559Z,9.94
2018-09-24T03:13:52.876Z,9.95
2018-09-24T03:15:19.166Z,9.96
2018-09-24T03:16:46.045Z,10.01
2018-09-24T03:18:14.438Z,10.05
2018-09-24T03:19:40.890Z,10.07
2018-09-24T03:21:07.800Z,10.09
2018-09-24T03:22:36.103Z,10.08
2018-09-24T03:24:02.409Z,10.03
2018-09-24T03:25:29.196Z,10.02
2018-09-24T03:26:56.153Z,10.03
2018-09-24T03:28:22.820Z,10.05
2018-09-24T03:29:50.351Z,10.06
2018-09-24T03:31:17.617Z,10.07
2018-09-24T03:32:44.723Z,10.07
2018-09-24T03:34:12.084Z,10.07
2018-09-24T03:35:38.058Z,10.10
2018-09-24T03:37:05.402Z,10.10
2018-09-24T03:38:33.806Z,10.12
2018-09-24T03:40:00.182Z,10.13
2018-09-24T03:41:28.015Z,10.15
2018-09-24T03:42:55.385Z,10.16
2018-09-24T03:44:21.509Z,10.14
2018-09-24T03:45:50.157Z,10.16
2018-09-24T03:47:16.355Z,10.15
2018-09-24T03:48:44.689Z,10.15
2018-09-24T03:50:10.812Z,10.10
2018-09-24T03:51:37.931Z,10.09
2018-09-24T03:53:06.262Z,10.06
2018-09-24T03:54:33.514Z,10.04
2018-09-24T03:56:00.791Z,10.01
2018-09-24T03:57:27.051Z,10.00
2018-09-24T03:58:54.905Z,10.00
2018-09-24T04:02:57.262Z,10.02
2018-09-24T04:04:24.011Z,10.07
2018-09-24T04:05:51.116Z,10.11
2018-09-24T04:07:17.295Z,10.12
2018-09-24T04:08:45.009Z,10.13
2018-09-24T04:10:10.986Z,10.15
2018-09-24T04:11:38.925Z,10.16
2018-09-24T04:13:25.540Z,10.15
2018-09-24T04:17:27.680Z,10.16
2018-09-24T04:18:53.823Z,10.17
2018-09-24T04:20:21.145Z,10.19
2018-09-24T04:21:47.341Z,10.20
2018-09-24T04:23:14.289Z,10.19
2018-09-24T04:24:52.286Z,10.20
2018-09-24T04:26:19.554Z,10.20
2018-09-24T04:27:45.609Z,10.21
2018-09-24T04:40:41.991Z,10.31
2018-09-24T04:42:07.657Z,10.37
2018-09-24T04:43:34.718Z,10.36
2018-09-24T04:45:01.634Z,10.34
2018-09-24T04:46:29.174Z,10.32
2018-09-24T04:47:54.547Z,10.30
2018-09-24T04:49:21.773Z,10.29
2018-09-24T04:50:49.284Z,10.32
2018-09-24T04:52:16.520Z,10.30
2018-09-24T04:53:43.680Z,10.29
2018-09-24T04:55:10.974Z,10.27
2018-09-24T04:56:39.100Z,10.27
2018-09-24T04:58:05.366Z,10.27
2018-09-24T04:59:32.647Z,10.27
2018-09-24T05:01:00.933Z,10.29
2018-09-24T05:02:28.302Z,10.28
2018-09-24T05:03:54.932Z,10.30
2018-09-24T05:05:21.408Z,10.34
2018-09-24T05:06:49.748Z,10.37
2018-09-24T05:08:17.145Z,10.40
2018-09-24T05:09:44.390Z,10.42
2018-09-24T05:11:10.785Z,10.44
2018-09-24T05:12:39.141Z,10.47
2018-09-24T05:14:06.617Z,10.50
2018-09-24T05:15:33.905Z,10.52
2018-09-24T05:17:00.168Z,10.55
2018-09-24T05:18:27.323Z,10.56
2018-09-24T05:19:55.690Z,10.57
2018-09-24T05:21:23.054Z,10.58
2018-09-24T05:22:50.430Z,10.60
2018-09-24T05:24:16.025Z,10.63
2018-09-24T05:25:44.348Z,10.64
2018-09-24T05:27:11.779Z,10.66
2018-09-24T05:28:37.623Z,10.67
2018-09-24T05:30:04.957Z,10.69
2018-09-24T05:31:32.178Z,10.70
2018-09-24T05:32:58.873Z,10.72
2018-09-24T05:34:25.559Z,10.76
2018-09-24T05:35:54.032Z,10.76
2018-09-24T05:37:19.804Z,10.77
2018-09-24T05:38:46.717Z,10.78
2018-09-24T05:40:15.140Z,10.78
2018-09-24T05:41:41.434Z,10.77
2018-09-24T05:43:09.366Z,10.76
2018-09-24T05:44:35.301Z,10.77
2018-09-24T05:46:03.563Z,10.76
2018-09-24T05:47:30.436Z,10.78
2018-09-24T05:48:56.441Z,10.78
2018-09-24T05:50:23.116Z,10.78
2018-09-24T05:51:50.491Z,10.77
2018-09-24T05:53:17.635Z,10.78
2018-09-24T05:54:44.675Z,10.79
2018-09-24T05:56:11.661Z,10.80
2018-09-24T05:57:38.969Z,10.80
2018-09-24T05:59:05.208Z,10.83
2018-09-24T06:00:33.604Z,10.83
2018-09-24T06:02:00.972Z,10.86
2018-09-24T06:03:28.234Z,10.89
2018-09-24T06:04:55.579Z,10.91
2018-09-24T06:06:21.954Z,10.95
2018-09-24T06:07:49.176Z,10.99
2018-09-24T06:09:17.558Z,11.02
2018-09-24T06:10:43.871Z,11.06
2018-09-24T06:12:11.840Z,11.09
2018-09-24T06:13:37.728Z,11.11
2018-09-24T06:15:05.254Z,11.14
2018-09-24T06:16:31.443Z,11.16
2018-09-24T06:17:58.013Z,11.18
2018-09-24T06:19:26.402Z,11.20
2018-09-24T06:20:52.830Z,11.22
2018-09-24T06:22:20.658Z,11.22
2018-09-24T06:23:47.196Z,11.24
2018-09-24T06:25:15.033Z,11.24
2018-09-24T06:26:42.105Z,11.26
2018-09-24T06:28:09.945Z,11.28
2018-09-24T06:29:35.736Z,11.30
2018-09-24T06:31:03.005Z,11.33
2018-09-24T06:32:30.285Z,11.35
2018-09-24T06:33:56.801Z,11.38
2018-09-24T06:35:22.558Z,11.44
2018-09-24T06:36:50.898Z,11.49
2018-09-24T06:38:17.975Z,11.53
2018-09-24T06:39:43.649Z,11.55
2018-09-24T06:41:10.995Z,11.55
2018-09-24T06:42:37.611Z,11.57
2018-09-24T06:44:05.034Z,11.61
2018-09-24T06:45:32.240Z,11.64
2018-09-24T06:46:59.509Z,11.66
2018-09-24T06:48:26.890Z,11.69
2018-09-24T06:49:54.626Z,11.71
2018-09-24T06:51:21.958Z,11.73
2018-09-24T06:52:48.410Z,11.74
2018-09-24T06:54:16.730Z,11.77
2018-09-24T06:55:43.753Z,11.81
2018-09-24T06:57:09.534Z,11.86
2018-09-24T06:58:37.506Z,11.87
2018-09-24T07:00:03.217Z,11.90
2018-09-24T07:01:31.537Z,11.89
2018-09-24T07:02:58.976Z,11.86
2018-09-24T07:04:26.166Z,11.84
2018-09-24T07:05:53.464Z,11.84
2018-09-24T07:07:13.591Z,11.85
2018-09-24T07:08:48.037Z,11.84
2018-09-24T07:10:13.753Z,11.83
2018-09-24T07:11:40.929Z,11.81
2018-09-24T07:13:09.024Z,11.79
2018-09-24T07:14:35.419Z,11.80
2018-09-24T07:16:03.236Z,11.84
2018-09-24T07:17:29.316Z,11.83
2018-09-24T07:18:56.027Z,11.82
2018-09-24T07:20:23.326Z,11.81
2018-09-24T07:21:51.076Z,11.83
2018-09-24T07:23:18.313Z,11.90
2018-09-24T07:24:45.695Z,11.96
2018-09-24T07:26:12.906Z,12.04
2018-09-24T07:27:39.057Z,12.12
2018-09-24T07:29:06.615Z,12.18
2018-09-24T07:30:34.055Z,12.22
2018-09-24T07:32:01.136Z,12.26
2018-09-24T07:33:27.580Z,12.30
2018-09-24T07:34:54.971Z,12.35
2018-09-24T07:36:22.477Z,12.37
2018-09-24T07:37:49.811Z,12.39
2018-09-24T07:39:16.671Z,12.40
2018-09-24T07:40:44.956Z,12.40
2018-09-24T07:42:12.137Z,12.38
2018-09-24T07:43:39.041Z,12.39
2018-09-24T07:45:06.149Z,12.44
2018-09-24T07:46:33.173Z,12.49
2018-09-24T07:47:59.392Z,12.49
2018-09-24T07:49:27.816Z,12.46
2018-09-24T07:50:55.190Z,12.45
2018-09-24T07:52:22.670Z,12.43
2018-09-24T07:53:50.081Z,12.42
2018-09-24T07:55:16.882Z,12.45
2018-09-24T07:56:42.547Z,12.51
2018-09-24T07:58:10.847Z,12.57
2018-09-24T07:59:36.971Z,12.60
2018-09-24T08:01:05.296Z,12.63
2018-09-24T08:02:32.004Z,12.60
2018-09-24T08:03:57.767Z,12.55
2018-09-24T08:05:24.369Z,12.56
2018-09-24T08:06:52.614Z,12.51
2018-09-24T08:08:18.898Z,12.51
2018-09-24T08:09:47.118Z,12.49
2018-09-24T08:11:13.559Z,12.46
2018-09-24T08:12:40.635Z,12.45
2018-09-24T08:14:07.816Z,12.44
2018-09-24T08:15:35.265Z,12.45
2018-09-24T08:17:03.438Z,12.47
2018-09-24T08:18:29.806Z,12.51
2018-09-24T08:19:58.346Z,12.56
2018-09-24T08:21:24.023Z,12.55
2018-09-24T08:22:52.583Z,12.53
2018-09-24T08:24:18.682Z,12.53
2018-09-24T08:25:47.145Z,12.54
2018-09-24T08:27:14.578Z,12.57
2018-09-24T08:28:41.836Z,12.61
2018-09-24T08:30:08.009Z,12.64
2018-09-24T08:31:36.550Z,12.68
2018-09-24T08:33:02.793Z,12.69
2018-09-24T08:34:31.118Z,12.70
2018-09-24T08:35:58.581Z,12.72
2018-09-24T08:37:25.522Z,12.72
2018-09-24T08:38:51.441Z,12.73
2018-09-24T08:40:19.805Z,12.74
2018-09-24T08:41:46.652Z,12.76
2018-09-24T08:43:12.977Z,12.79
2018-09-24T08:44:41.132Z,12.83
2018-09-24T08:46:07.926Z,12.83
2018-09-24T08:47:33.719Z,12.86
2018-09-24T08:49:01.115Z,12.90
2018-09-24T08:50:29.531Z,12.94
2018-09-24T08:51:56.848Z,12.95
2018-09-24T08:53:23.446Z,12.96
2018-09-24T08:54:50.288Z,12.96
2018-09-24T08:56:15.935Z,12.99
2018-09-24T08:57:43.961Z,13.02
2018-09-24T08:59:10.250Z,13.04
2018-09-24T09:00:38.541Z,13.05
2018-09-24T09:02:05.744Z,13.06
2018-09-24T09:03:32.102Z,13.08
2018-09-24T09:04:59.593Z,13.11
2018-09-24T09:06:27.075Z,13.13
2018-09-24T09:08:00.147Z,13.14
2018-09-24T09:09:22.021Z,13.16
2018-09-24T09:10:49.185Z,13.19
2018-09-24T09:12:16.480Z,13.20
2018-09-24T09:13:43.466Z,13.21
2018-09-24T09:15:10.100Z,13.23
2018-09-24T09:16:35.832Z,13.25
2018-09-24T09:18:04.419Z,13.29
2018-09-24T09:19:30.213Z,13.29
2018-09-24T09:20:58.605Z,13.27
2018-09-24T09:22:26.034Z,13.22
2018-09-24T09:23:52.449Z,13.23
2018-09-24T09:25:20.740Z,13.26
2018-09-24T09:26:48.093Z,13.33
2018-09-24T09:28:14.933Z,13.38
2018-09-24T09:29:42.028Z,13.39
2018-09-24T09:31:08.202Z,13.40
2018-09-24T09:32:36.365Z,13.41
2018-09-24T09:34:03.873Z,13.44
2018-09-24T09:35:31.211Z,13.46
2018-09-24T09:36:58.755Z,13.46
2018-09-24T09:38:25.130Z,13.44
2018-09-24T09:39:53.538Z,13.42
2018-09-24T09:41:20.977Z,13.35
2018-09-24T09:42:48.431Z,13.32
2018-09-24T09:44:15.919Z,13.30
2018-09-24T09:45:43.304Z,13.34
2018-09-24T09:47:10.630Z,13.37
2018-09-24T09:48:37.936Z,13.43
2018-09-24T09:50:03.624Z,13.52
2018-09-24T09:51:30.989Z,13.64
2018-09-24T09:52:58.428Z,13.68
2018-09-24T09:54:26.733Z,13.73
2018-09-24T09:55:54.180Z,13.75
2018-09-24T09:57:20.966Z,13.78
2018-09-24T09:58:46.886Z,13.79
2018-09-24T10:00:14.146Z,13.78
2018-09-24T10:01:42.481Z,13.78
2018-09-24T10:03:08.444Z,13.81
2018-09-24T10:04:35.907Z,13.85
2018-09-24T10:06:02.651Z,13.91
2018-09-24T10:07:29.417Z,14.00
2018-09-24T10:08:56.204Z,14.08
2018-09-24T10:10:23.657Z,14.17
2018-09-24T10:11:52.043Z,14.20
2018-09-24T10:13:19.501Z,14.22
2018-09-24T10:14:45.879Z,14.17
2018-09-24T10:16:14.347Z,14.14
2018-09-24T10:17:41.687Z,14.16
2018-09-24T10:19:07.776Z,14.14
2018-09-24T10:20:36.334Z,14.22
2018-09-24T10:22:02.096Z,14.21
2018-09-24T10:23:30.385Z,14.15
2018-09-24T10:24:57.235Z,14.06
2018-09-24T10:26:24.546Z,14.00
2018-09-24T10:27:50.874Z,14.07
2018-09-24T10:29:18.226Z,14.16
2018-09-24T10:30:45.765Z,14.26
2018-09-24T10:32:13.968Z,14.36
2018-09-24T10:33:40.213Z,14.49
2018-09-24T10:35:07.572Z,14.52
2018-09-24T10:36:34.932Z,14.47
2018-09-24T10:38:03.313Z,14.44
2018-09-24T10:39:29.153Z,14.35
2018-09-24T10:40:57.445Z,14.23
2018-09-24T10:42:24.825Z,14.12
2018-09-24T10:43:51.132Z,14.07
2018-09-24T10:45:18.650Z,14.07
2018-09-24T10:46:46.494Z,14.02
2018-09-24T10:48:13.628Z,13.98
2018-09-24T10:49:41.031Z,14.06
2018-09-24T10:51:07.400Z,14.11
2018-09-24T10:52:34.931Z,14.16
2018-09-24T10:54:03.237Z,14.28
2018-09-24T10:55:30.690Z,14.49
2018-09-24T10:56:57.420Z,14.70
2018-09-24T10:58:24.821Z,14.85
2018-09-24T10:59:51.439Z,14.96
2018-09-24T11:01:18.690Z,15.09
2018-09-24T11:02:47.055Z,15.25
2018-09-24T11:04:13.464Z,15.39
2018-09-24T11:05:40.856Z,15.45
2018-09-24T11:07:08.745Z,15.56
2018-09-24T11:08:36.042Z,15.74
2018-09-24T11:10:01.900Z,15.96
2018-09-24T11:11:30.171Z,16.17
2018-09-24T11:12:57.361Z,16.25
2018-09-24T11:14:24.662Z,16.44
2018-09-24T11:15:51.146Z,16.66
2018-09-24T11:17:19.260Z,16.83
2018-09-24T11:18:45.337Z,16.94
2018-09-24T11:20:13.865Z,17.00
2018-09-24T11:21:40.717Z,17.04
2018-09-24T11:23:07.996Z,17.10
2018-09-24T11:24:37.447Z,17.19
2018-09-24T11:26:02.702Z,17.32
2018-09-24T11:27:28.975Z,17.45
2018-09-24T11:28:56.503Z,17.57
2018-09-24T11:30:24.194Z,17.65
2018-09-24T11:31:51.675Z,17.63
2018-09-24T11:33:17.874Z,17.53
2018-09-24T11:34:45.070Z,17.30
2018-09-24T11:36:13.175Z,16.99
2018-09-24T11:37:40.412Z,16.71
2018-09-24T11:39:07.042Z,16.37
2018-09-24T11:40:34.524Z,16.16
2018-09-24T11:42:01.354Z,15.90
2018-09-24T11:43:27.653Z,15.71
2018-09-24T11:44:56.071Z,15.50
2018-09-24T11:46:22.707Z,15.20
2018-09-24T11:47:50.211Z,15.05
2018-09-24T11:49:17.488Z,14.98
2018-09-24T11:50:44.793Z,14.92
2018-09-24T11:52:12.007Z,14.78
2018-09-24T11:53:40.041Z,14.70
2018-09-24T11:55:06.637Z,14.62
2018-09-24T11:56:33.944Z,14.63
2018-09-24T11:58:01.243Z,14.75
2018-09-24T11:59:27.581Z,14.79
2018-09-24T12:00:54.963Z,14.74
2018-09-24T12:02:22.131Z,14.73
2018-09-24T12:03:50.670Z,14.72
2018-09-24T12:05:16.985Z,14.97
2018-09-24T12:06:45.087Z,15.23
2018-09-24T12:08:12.570Z,15.44
2018-09-24T12:09:39.716Z,15.59
2018-09-24T12:11:06.188Z,15.70
2018-09-24T12:12:34.630Z,15.82
2018-09-24T12:14:01.263Z,15.96
2018-09-24T12:15:28.601Z,16.01
2018-09-24T12:16:55.901Z,15.99
2018-09-24T12:18:22.351Z,15.88
2018-09-24T12:19:49.197Z,15.65
2018-09-24T12:21:16.455Z,15.61
2018-09-24T12:22:43.846Z,15.79
2018-09-24T12:24:12.222Z,16.05
2018-09-24T12:25:38.147Z,16.27
2018-09-24T12:27:06.370Z,16.44
2018-09-24T12:28:32.130Z,16.66
2018-09-24T12:30:00.335Z,16.92
2018-09-24T12:31:27.778Z,17.10
2018-09-24T12:32:54.139Z,17.15
2018-09-24T12:34:20.540Z,17.21
2018-09-24T12:35:49.036Z,16.99
2018-09-24T12:37:15.445Z,16.83
2018-09-24T12:38:42.388Z,16.84
2018-09-24T12:40:10.661Z,16.99
2018-09-24T12:41:37.083Z,17.24
2018-09-24T12:43:04.592Z,17.41
2018-09-24T12:44:31.944Z,17.65
2018-09-24T12:45:59.360Z,17.86
2018-09-24T12:47:26.892Z,18.10
2018-09-24T12:48:53.768Z,18.12
2018-09-24T12:50:22.177Z,18.20
2018-09-24T12:51:49.581Z,18.23
2018-09-24T12:53:15.511Z,18.27
2018-09-24T12:54:43.263Z,18.10
2018-09-24T12:56:10.488Z,18.09
2018-09-24T12:57:36.762Z,18.08
2018-09-24T12:59:05.221Z,17.88
2018-09-24T13:00:32.583Z,17.73
2018-09-24T13:01:58.984Z,17.55
2018-09-24T13:03:26.460Z,17.36
2018-09-24T13:04:53.866Z,17.08
2018-09-24T13:06:22.450Z,16.88
2018-09-24T13:07:48.761Z,16.52
2018-09-24T13:09:16.878Z,16.36
2018-09-24T13:10:43.361Z,16.15
2018-09-24T13:12:10.752Z,15.77
2018-09-24T13:13:37.468Z,15.37
2018-09-24T13:15:04.964Z,14.99
2018-09-24T13:16:32.433Z,14.65
2018-09-24T13:18:00.387Z,14.39
2018-09-24T13:19:26.727Z,14.21
2018-09-24T13:20:53.949Z,14.20
2018-09-24T13:22:22.535Z,14.38
2018-09-24T13:23:49.858Z,14.68
2018-09-24T13:25:16.099Z,14.95
2018-09-24T13:26:43.345Z,15.01
2018-09-24T13:28:10.577Z,15.11
2018-09-24T13:29:38.677Z,15.20
2018-09-24T13:31:04.899Z,15.21
2018-09-24T13:32:32.862Z,15.15
2018-09-24T13:33:59.279Z,15.14
2018-09-24T13:35:27.609Z,14.99
2018-09-24T13:36:53.949Z,14.90
2018-09-24T13:38:21.415Z,14.84
2018-09-24T13:39:49.934Z,14.78
2018-09-24T13:41:16.280Z,14.69
2018-09-24T13:42:43.691Z,14.69
2018-09-24T13:44:11.656Z,14.66
2018-09-24T13:45:38.362Z,14.51
2018-09-24T13:47:04.693Z,14.40
2018-09-24T13:48:33.172Z,14.36
2018-09-24T13:50:00.472Z,14.23
2018-09-24T13:51:26.042Z,14.21
2018-09-24T13:52:53.380Z,14.06
2018-09-24T13:54:20.726Z,14.00
2018-09-24T13:55:48.070Z,13.90
2018-09-24T13:57:15.843Z,13.68
2018-09-24T13:58:42.925Z,13.64
2018-09-24T14:00:10.143Z,13.54
2018-09-24T14:01:37.512Z,13.51
2018-09-24T14:03:03.110Z,13.43
2018-09-24T14:04:31.628Z,13.34
2018-09-24T14:06:03.793Z,13.30
2018-09-24T14:07:25.393Z,13.26
2018-09-24T14:08:51.793Z,13.17
2018-09-24T14:10:19.381Z,13.07
2018-09-24T14:11:45.937Z,12.97
2018-09-24T14:13:12.931Z,13.07
2018-09-24T14:14:41.447Z,13.16
2018-09-24T14:16:08.699Z,13.22
2018-09-24T14:17:34.262Z,13.22
2018-09-24T14:19:02.602Z,13.10
2018-09-24T14:20:29.305Z,13.08
2018-09-24T14:21:56.674Z,13.05
2018-09-24T14:23:23.038Z,13.08
2018-09-24T14:24:51.309Z,13.08
2018-09-24T14:26:17.779Z,13.13
2018-09-24T14:27:45.176Z,13.18
2018-09-24T14:29:12.160Z,13.23
2018-09-24T14:30:39.363Z,13.27
2018-09-24T14:32:06.531Z,13.29
2018-09-24T14:33:35.063Z,13.27
2018-09-24T14:35:01.330Z,13.25
2018-09-24T14:36:29.339Z,13.18
2018-09-24T14:37:55.761Z,13.09
2018-09-24T14:39:24.199Z,12.97
2018-09-24T14:40:51.614Z,12.77
2018-09-24T14:42:17.065Z,12.61
2018-09-24T14:43:44.816Z,12.54
2018-09-24T14:45:12.240Z,12.46
2018-09-24T14:46:38.687Z,12.41
2018-09-24T14:48:06.290Z,12.31
2018-09-24T14:49:33.713Z,12.20
2018-09-24T14:50:59.935Z,12.20
2018-09-24T14:52:27.302Z,12.23
2018-09-24T14:53:55.595Z,12.26
2018-09-24T14:55:23.146Z,12.20
2018-09-24T14:56:49.324Z,12.17
2018-09-24T14:58:16.685Z,12.21
2018-09-24T14:59:43.165Z,12.19
2018-09-24T15:01:09.738Z,12.23
2018-09-24T15:02:36.054Z,12.24
2018-09-24T15:04:03.490Z,12.28
2018-09-24T15:05:30.310Z,12.35
2018-09-24T15:06:58.655Z,12.46
2018-09-24T15:08:24.957Z,12.53
2018-09-24T15:09:53.509Z,12.60
2018-09-24T15:11:20.309Z,12.66
2018-09-24T15:12:47.449Z,12.70
2018-09-24T15:14:13.598Z,12.74
2018-09-24T15:15:41.980Z,12.65
2018-09-24T15:17:08.991Z,12.57
2018-09-24T15:18:34.950Z,12.48
2018-09-24T15:20:02.285Z,12.39
2018-09-24T15:21:30.394Z,12.36
2018-09-24T15:22:57.858Z,12.35
2018-09-24T15:24:25.055Z,12.37
2018-09-24T15:25:52.362Z,12.37
2018-09-24T15:27:18.831Z,12.34
2018-09-24T15:28:47.141Z,12.33
2018-09-24T15:30:13.384Z,12.21
2018-09-24T15:31:41.564Z,12.08
2018-09-24T15:33:07.662Z,12.02
2018-09-24T15:34:35.909Z,11.99
2018-09-24T15:36:01.333Z,11.95
2018-09-24T15:37:29.526Z,11.81
2018-09-24T15:38:56.986Z,11.59
2018-09-24T15:40:24.214Z,11.40
2018-09-24T15:41:50.666Z,11.26
2018-09-24T15:43:18.077Z,11.19
2018-09-24T15:44:46.462Z,11.10
2018-09-24T15:46:12.266Z,11.06
2018-09-24T15:47:39.559Z,11.16
2018-09-24T15:49:06.750Z,11.23
2018-09-24T15:50:34.957Z,11.28
2018-09-24T15:52:01.405Z,11.32
2018-09-24T15:53:28.544Z,11.33
2018-09-24T15:54:57.029Z,11.27
2018-09-24T15:56:23.416Z,11.25
2018-09-24T15:57:51.610Z,11.14
2018-09-24T15:59:18.122Z,11.01
2018-09-24T16:00:45.510Z,10.98
2018-09-24T16:02:12.567Z,10.91
2018-09-24T16:03:39.537Z,10.84
2018-09-24T16:05:05.826Z,10.88
2018-09-24T16:06:33.284Z,10.89
2018-09-24T16:07:59.548Z,10.85
2018-09-24T16:09:27.944Z,10.86
2018-09-24T16:10:54.185Z,10.86
2018-09-24T16:12:20.790Z,10.92
2018-09-24T16:13:48.134Z,10.94
2018-09-24T16:15:15.246Z,10.90
2018-09-24T16:16:43.663Z,10.87
2018-09-24T16:18:09.446Z,10.93
2018-09-24T16:19:36.427Z,11.01
2018-09-24T16:21:04.946Z,11.00
2018-09-24T16:22:32.336Z,11.03
2018-09-24T16:23:59.607Z,11.05
2018-09-24T16:25:26.780Z,11.04
2018-09-24T16:26:53.175Z,11.04
2018-09-24T16:28:21.408Z,11.04
2018-09-24T16:29:47.789Z,11.01
2018-09-24T16:31:15.060Z,10.93
2018-09-24T16:32:41.443Z,10.87
2018-09-24T16:34:09.303Z,10.79
2018-09-24T16:35:35.840Z,10.76
2018-09-24T16:37:01.629Z,10.76
2018-09-24T16:38:28.850Z,10.76
2018-09-24T16:39:56.226Z,10.80
2018-09-24T16:41:23.613Z,10.84
2018-09-24T16:42:51.048Z,10.86
2018-09-24T16:44:18.232Z,10.90
2018-09-24T16:45:45.570Z,10.95
2018-09-24T16:47:12.051Z,10.91
2018-09-24T16:48:38.348Z,10.81
2018-09-24T16:50:06.770Z,10.79
2018-09-24T16:51:32.311Z,10.71
2018-09-24T16:53:00.777Z,10.72
2018-09-24T16:54:27.218Z,10.75
2018-09-24T16:55:54.541Z,10.78
2018-09-24T16:57:19.822Z,10.78
2018-09-24T16:58:47.395Z,10.78
2018-09-24T17:00:14.596Z,10.80
2018-09-24T17:01:41.841Z,10.76
2018-09-24T17:03:07.543Z,10.77
2018-09-24T17:04:35.968Z,10.77
2018-09-24T17:06:02.179Z,10.73
2018-09-24T17:07:29.704Z,10.67
2018-09-24T17:08:56.906Z,10.62
2018-09-24T17:10:25.340Z,10.54
2018-09-24T17:11:52.684Z,10.52
2018-09-24T17:13:19.042Z,10.51
2018-09-24T17:14:46.098Z,10.50
2018-09-24T17:16:12.388Z,10.54
2018-09-24T17:17:38.623Z,10.58
2018-09-24T17:19:07.017Z,10.62
2018-09-24T17:20:34.253Z,10.67
2018-09-24T17:22:01.649Z,10.72
2018-09-24T17:23:27.934Z,10.75
2018-09-24T17:24:56.154Z,10.76
2018-09-24T17:26:22.522Z,10.77
2018-09-24T17:27:49.902Z,10.76
2018-09-24T17:29:17.299Z,10.76
2018-09-24T17:30:42.695Z,10.69
2018-09-24T17:32:09.696Z,10.68
2018-09-24T17:33:37.630Z,10.63
2018-09-24T17:35:04.110Z,10.59
2018-09-24T17:36:31.345Z,10.54
2018-09-24T17:37:57.874Z,10.51
2018-09-24T17:39:26.171Z,10.47
2018-09-24T17:40:52.502Z,10.48
2018-09-24T17:42:18.962Z,10.50
2018-09-24T17:43:46.278Z,10.54
2018-09-24T17:45:14.167Z,10.55
2018-09-24T17:46:39.933Z,10.55
2018-09-24T17:48:08.280Z,10.55
2018-09-24T17:49:34.542Z,10.53
2018-09-24T17:51:01.146Z,10.54
2018-09-24T17:52:29.380Z,10.56
2018-09-24T17:53:56.532Z,10.55
2018-09-24T17:55:22.838Z,10.47
2018-09-24T17:56:49.946Z,10.44
2018-09-24T17:58:17.238Z,10.44
2018-09-24T17:59:43.566Z,10.43
2018-09-24T18:01:11.378Z,10.45
2018-09-24T18:02:38.250Z,10.44
2018-09-24T18:04:03.725Z,10.39
2018-09-24T18:05:31.890Z,10.38
2018-09-24T18:06:58.545Z,10.37
2018-09-24T18:08:25.772Z,10.37
2018-09-24T18:09:53.214Z,10.35
2018-09-24T18:11:20.528Z,10.30
2018-09-24T18:12:45.938Z,10.26
2018-09-24T18:14:14.350Z,10.25
2018-09-24T18:15:41.592Z,10.29
2018-09-24T18:17:08.892Z,10.28
2018-09-24T18:18:36.201Z,10.28
2018-09-24T18:20:03.498Z,10.28
2018-09-24T18:21:29.690Z,10.30
2018-09-24T18:22:58.117Z,10.33
2018-09-24T18:24:25.506Z,10.25
2018-09-24T18:25:51.838Z,10.21
2018-09-24T18:27:19.196Z,10.18
2018-09-24T18:28:46.414Z,10.18
2018-09-24T18:30:13.798Z,10.17
2018-09-24T18:31:39.324Z,10.16
2018-09-24T18:33:06.957Z,10.17
2018-09-24T18:34:33.517Z,10.22
2018-09-24T18:36:00.768Z,10.27
2018-09-24T18:37:28.032Z,10.28
2018-09-24T18:38:54.335Z,10.31
2018-09-24T18:40:21.685Z,10.36
2018-09-24T18:41:49.958Z,10.38
2018-09-24T18:43:15.416Z,10.42
2018-09-24T18:44:42.662Z,10.46
2018-09-24T18:46:10.963Z,10.49
2018-09-24T18:47:38.287Z,10.51
2018-09-24T18:49:04.459Z,10.49
2018-09-24T18:50:31.770Z,10.46
2018-09-24T18:51:59.180Z,10.43
2018-09-24T18:53:26.445Z,10.41
2018-09-24T18:54:54.857Z,10.40
2018-09-24T18:56:22.103Z,10.39
2018-09-24T18:57:48.490Z,10.35
2018-09-24T18:59:16.555Z,10.30